Time;durP1;ratioP1;P1;durP2;ratioP2;P2;SDS_P1;SDS_P2;PMS_P1;PMS_P2;Temp;Humidity;BMP_temperature;BMP_pressure;BME280_temperature;BME280_humidity;BME280_pressure;Samples;Min_cycle;Max_cycle;Signal;HPM_P1;HPM_P2
2023/12/06 00:02:25;;;;;;;;;;;;;;;;;;5027018;28;123058;-71
2023/12/06 00:04:52;;;;;;;;;;;;;;;;;;5026275;28;117384;-72
2023/12/06 00:07:18;;;;;;;;;;;;;;;;;;5025775;28;120061;-71
2023/12/06 00:09:44;;;;;;;;;;;;;;;;;;5026965;28;125091;-72
2023/12/06 00:12:11;;;;;;;;;;;;;;;;;;5026108;28;129921;-72
2023/12/06 00:14:37;;;;;;;;;;;;;;;;;;5026804;28;129398;-72
2023/12/06 00:17:03;;;;;;;;;;;;;;;;;;5031959;27;98264;-71
2023/12/06 00:19:30;;;;;;;;;;;;;;;;;;5026121;28;129206;-72
2023/12/06 00:21:57;;;;;;;;;;;;;;;;;;5025972;28;123383;-71
2023/12/06 00:24:23;;;;;;;;;;;;;;;;;;5027495;27;118702;-71
2023/12/06 00:26:50;;;;;;;;;;;;;;;;;;5025921;28;130353;-72
2023/12/06 00:29:16;;;;;;;;;;;;;;;;;;5009240;27;123137;-71
2023/12/06 00:31:42;;;;;;;;;;;;;;;;;;5006161;28;125181;-72
2023/12/06 00:34:08;;;;;;;;;;;;;;;;;;5005513;28;128938;-72
2023/12/06 00:36:35;;;;;;;;;;;;;;;;;;5006772;28;123060;-71
2023/12/06 00:39:01;;;;;;;;;;;;;;;;;;5010337;28;129028;-71
2023/12/06 00:41:28;;;;;;;;;;;;;;;;;;5005827;28;116004;-71
2023/12/06 00:43:54;;;;;;;;;;;;;;;;;;5006546;28;128987;-71
2023/12/06 00:46:21;;;;;;;;;;;;;;;;;;5005458;28;128082;-71
2023/12/06 00:48:47;;;;;;;;;;;;;;;;;;5007324;28;123037;-73
2023/12/06 00:51:13;;;;;;;;;;;;;;;;;;5010800;28;104599;-70
2023/12/06 00:53:40;;;;;;;;;;;;;;;;;;5009059;28;128416;-71
2023/12/06 00:56:06;;;;;;;;;;;;;;;;;;5009467;28;123075;-71
2023/12/06 00:58:32;;;;;;;;;;;;;;;;;;5009886;28;129072;-71
2023/12/06 01:00:59;;;;;;;;;;;;;;;;;;5012647;28;124593;-72
2023/12/06 01:03:25;;;;;;;;;;;;;;;;;;5009485;28;129747;-71
2023/12/06 01:05:52;;;;;;;;;;;;;;;;;;5009790;28;129545;-71
2023/12/06 01:08:18;;;;;;;;;;;;;;;;;;5008822;28;123496;-71
2023/12/06 01:10:45;;;;;;;;;;;;;;;;;;5010036;28;129037;-72
2023/12/06 01:13:11;;;;;;;;;;;;;;;;;;5010059;28;130457;-72
2023/12/06 01:15:37;;;;;;;;;;;;;;;;;;5009129;28;122340;-72
2023/12/06 01:18:04;;;;;;;;;;;;;;;;;;5009748;28;126404;-71
2023/12/06 01:20:30;;;;;;;;;;;;;;;;;;5008652;28;129453;-72
2023/12/06 01:22:56;;;;;;;;;;;;;;;;;;5012462;28;117669;-72
2023/12/06 01:25:23;;;;;;;;;;;;;;;;;;5009134;28;130074;-71
2023/12/06 01:27:49;;;;;;;;;;;;;;;;;;5009400;28;123746;-72
2023/12/06 01:30:15;;;;;;;;;;;;;;;;;;5025282;28;126043;-71
2023/12/06 01:32:42;;;;;;;;;;;;;;;;;;5029458;27;130128;-72
2023/12/06 01:35:08;;;;;;;;;;;;;;;;;;5002232;28;123315;-72
2023/12/06 01:37:35;;;;;;;;;;;;;;;;;;4988826;28;128862;-71
2023/12/06 01:40:02;;;;;;;;;;;;;;;;;;4989693;28;118347;-71
2023/12/06 01:42:28;;;;;;;;;;;;;;;;;;4989065;28;122922;-71
2023/12/06 01:44:54;;;;;;;;;;;;;;;;;;4991193;28;129087;-72
2023/12/06 01:47:21;;;;;;;;;;;;;;;;;;5007488;28;126289;-71
2023/12/06 01:49:47;;;;;;;;;;;;;;;;;;5008559;28;127058;-72
2023/12/06 01:52:14;;;;;;;;;;;;;;;;;;5009018;28;129480;-72
2023/12/06 01:54:40;;;;;;;;;;;;;;;;;;5009093;28;123979;-72
2023/12/06 01:57:06;;;;;;;;;;;;;;;;;;5008144;28;129535;-72
2023/12/06 01:59:33;;;;;;;;;;;;;;;;;;5009084;28;129574;-72
2023/12/06 02:01:59;;;;;;;;;;;;;;;;;;5008467;28;123857;-72
2023/12/06 02:04:25;;;;;;;;;;;;;;;;;;5008551;28;129882;-71
2023/12/06 02:06:52;;;;;;;;;;;;;;;;;;5012203;28;98203;-72
2023/12/06 02:09:18;;;;;;;;;;;;;;;;;;5007760;28;129230;-71
2023/12/06 02:11:44;;;;;;;;;;;;;;;;;;5008086;28;129728;-72
2023/12/06 02:14:11;;;;;;;;;;;;;;;;;;5008435;28;121537;-72
2023/12/06 02:16:37;;;;;;;;;;;;;;;;;;5008670;28;129608;-71
2023/12/06 02:19:03;;;;;;;;;;;;;;;;;;5008115;28;130051;-71
2023/12/06 02:21:30;;;;;;;;;;;;;;;;;;5008802;28;124713;-71
2023/12/06 02:23:56;;;;;;;;;;;;;;;;;;5008775;28;129030;-72
2023/12/06 02:26:22;;;;;;;;;;;;;;;;;;5011033;28;129540;-71
2023/12/06 02:28:49;;;;;;;;;;;;;;;;;;5008846;28;129621;-71
2023/12/06 02:31:15;;;;;;;;;;;;;;;;;;5008034;28;128042;-72
2023/12/06 02:33:41;;;;;;;;;;;;;;;;;;5007798;28;107118;-72
2023/12/06 02:36:08;;;;;;;;;;;;;;;;;;5008300;28;128875;-72
2023/12/06 02:38:34;;;;;;;;;;;;;;;;;;5027444;28;129470;-72
2023/12/06 02:41:00;;;;;;;;;;;;;;;;;;5027608;28;123880;-71
2023/12/06 02:43:27;;;;;;;;;;;;;;;;;;5028464;28;129189;-73
2023/12/06 02:45:53;;;;;;;;;;;;;;;;;;5027576;27;129487;-73
2023/12/06 02:48:19;;;;;;;;;;;;;;;;;;5032268;28;105440;-72
2023/12/06 02:50:46;;;;;;;;;;;;;;;;;;5028454;27;129397;-72
2023/12/06 02:53:12;;;;;;;;;;;;;;;;;;5027004;27;122648;-72
2023/12/06 02:55:39;;;;;;;;;;;;;;;;;;5027369;27;129377;-72
2023/12/06 02:58:05;;;;;;;;;;;;;;;;;;5026984;28;130314;-72
2023/12/06 03:00:32;;;;;;;;;;;;;;;;;;5027500;28;125470;-71
2023/12/06 03:02:58;;;;;;;;;;;;;;;;;;5028352;28;125778;-71
2023/12/06 03:05:24;;;;;;;;;;;;;;;;;;5027656;28;129518;-72
2023/12/06 03:07:51;;;;;;;;;;;;;;;;;;5011975;28;122651;-71
2023/12/06 03:10:17;;;;;;;;;;;;;;;;;;5011137;28;128992;-71
2023/12/06 03:12:43;;;;;;;;;;;;;;;;;;5026613;27;121709;-71
2023/12/06 03:15:10;;;;;;;;;;;;;;;;;;5027233;28;129471;-71
2023/12/06 03:17:36;;;;;;;;;;;;;;;;;;5028706;27;98922;-71
2023/12/06 03:20:05;;;;;;;;;;;;;;;;;;5028019;28;124244;-71
2023/12/06 03:22:31;;;;;;;;;;;;;;;;;;5025995;28;126529;-70
2023/12/06 03:24:57;;;;;;;;;;;;;;;;;;5027572;27;127687;-71
2023/12/06 03:27:24;;;;;;;;;;;;;;;;;;5025981;27;121794;-72
2023/12/06 03:29:50;;;;;;;;;;;;;;;;;;5007153;28;129844;-71
2023/12/06 03:32:17;;;;;;;;;;;;;;;;;;5010466;28;130325;-71
2023/12/06 03:34:43;;;;;;;;;;;;;;;;;;4999711;28;129004;-71
2023/12/06 03:37:09;;;;;;;;;;;;;;;;;;4986502;28;130170;-72
2023/12/06 03:39:36;;;;;;;;;;;;;;;;;;4987592;28;123373;-73
2023/12/06 03:42:02;;;;;;;;;;;;;;;;;;4987472;28;128870;-72
2023/12/06 03:44:28;;;;;;;;;;;;;;;;;;4990957;28;129975;-72
2023/12/06 03:46:55;;;;;;;;;;;;;;;;;;5026978;27;124240;-73
2023/12/06 03:49:21;;;;;;;;;;;;;;;;;;5026560;28;127127;-72
2023/12/06 03:51:47;;;;;;;;;;;;;;;;;;5027495;28;129483;-72
2023/12/06 03:54:14;;;;;;;;;;;;;;;;;;5030581;28;123064;-72
2023/12/06 03:56:41;;;;;;;;;;;;;;;;;;5026792;28;110944;-71
2023/12/06 03:59:07;;;;;;;;;;;;;;;;;;5027202;28;123723;-72
2023/12/06 04:01:33;;;;;;;;;;;;;;;;;;5026374;28;128962;-71
2023/12/06 04:04:00;;;;;;;;;;;;;;;;;;5026689;28;129296;-72
2023/12/06 04:06:26;;;;;;;;;;;;;;;;;;5027230;28;121031;-72
2023/12/06 04:08:53;;;;;;;;;;;;;;;;;;5027138;28;129091;-72
2023/12/06 04:11:20;;;;;;;;;;;;;;;;;;5025301;28;129075;-71
2023/12/06 04:13:46;;;;;;;;;;;;;;;;;;5030466;28;126135;-71
2023/12/06 04:16:12;;;;;;;;;;;;;;;;;;5026445;28;129856;-72
2023/12/06 04:18:39;;;;;;;;;;;;;;;;;;5025460;28;124005;-72
2023/12/06 04:21:05;;;;;;;;;;;;;;;;;;5026272;28;128827;-72
2023/12/06 04:23:32;;;;;;;;;;;;;;;;;;5026832;28;130102;-72
2023/12/06 04:25:58;;;;;;;;;;;;;;;;;;5026038;28;123067;-72
2023/12/06 04:28:24;;;;;;;;;;;;;;;;;;5016431;28;128950;-72
2023/12/06 04:30:51;;;;;;;;;;;;;;;;;;5006838;28;130112;-72
2023/12/06 04:33:17;;;;;;;;;;;;;;;;;;5005676;28;123073;-72
2023/12/06 04:35:43;;;;;;;;;;;;;;;;;;5009573;28;129108;-72
2023/12/06 04:38:10;;;;;;;;;;;;;;;;;;5006434;28;125474;-72
2023/12/06 04:40:36;;;;;;;;;;;;;;;;;;5006032;28;129117;-72
2023/12/06 04:43:02;;;;;;;;;;;;;;;;;;5006731;28;122580;-73
2023/12/06 04:45:29;;;;;;;;;;;;;;;;;;5007155;28;98665;-72
2023/12/06 04:47:55;;;;;;;;;;;;;;;;;;5007094;28;118426;-72
2023/12/06 04:50:22;;;;;;;;;;;;;;;;;;5006194;28;129599;-72
2023/12/06 04:52:48;;;;;;;;;;;;;;;;;;5006476;28;122969;-72
2023/12/06 04:55:14;;;;;;;;;;;;;;;;;;5006372;28;129131;-73
2023/12/06 04:57:41;;;;;;;;;;;;;;;;;;5010170;28;109750;-72
2023/12/06 05:00:08;;;;;;;;;;;;;;;;;;5004852;28;127055;-72
2023/12/06 05:02:35;;;;;;;;;;;;;;;;;;5006359;28;127516;-72
2023/12/06 05:05:02;;;;;;;;;;;;;;;;;;5006182;28;123827;-72
2023/12/06 05:07:28;;;;;;;;;;;;;;;;;;5005417;28;129020;-72
2023/12/06 05:09:54;;;;;;;;;;;;;;;;;;5006702;28;130278;-72
2023/12/06 05:12:22;;;;;;;;;;;;;;;;;;5006275;28;123407;-72
2023/12/06 05:14:48;;;;;;;;;;;;;;;;;;5005474;28;130096;-71
2023/12/06 05:17:14;;;;;;;;;;;;;;;;;;5005930;28;129618;-71
2023/12/06 05:19:41;;;;;;;;;;;;;;;;;;5009818;28;122433;-72
2023/12/06 05:22:07;;;;;;;;;;;;;;;;;;5004149;28;129458;-73
2023/12/06 05:24:33;;;;;;;;;;;;;;;;;;5005357;28;123031;-72
2023/12/06 05:26:59;;;;;;;;;;;;;;;;;;5006792;28;129795;-73
2023/12/06 05:29:26;;;;;;;;;;;;;;;;;;5004853;28;128016;-72
2023/12/06 05:31:52;;;;;;;;;;;;;;;;;;5006262;28;123090;-72
2023/12/06 05:34:19;;;;;;;;;;;;;;;;;;5005292;28;129671;-72
2023/12/06 05:36:45;;;;;;;;;;;;;;;;;;5006599;28;129350;-72
2023/12/06 05:39:12;;;;;;;;;;;;;;;;;;5010283;28;98803;-73
2023/12/06 05:41:38;;;;;;;;;;;;;;;;;;5012594;28;128988;-72
2023/12/06 05:44:05;;;;;;;;;;;;;;;;;;5009509;28;122511;-71
2023/12/06 05:46:31;;;;;;;;;;;;;;;;;;5009331;28;129001;-73
2023/12/06 05:48:58;;;;;;;;;;;;;;;;;;5007435;28;129650;-71
2023/12/06 05:51:24;;;;;;;;;;;;;;;;;;5008725;28;125503;-72
2023/12/06 05:53:52;;;;;;;;;;;;;;;;;;5009242;28;129892;-72
2023/12/06 05:56:19;;;;;;;;;;;;;;;;;;5008259;28;130541;-72
2023/12/06 05:58:45;;;;;;;;;;;;;;;;;;5009156;28;123063;-73
2023/12/06 06:01:12;;;;;;;;;;;;;;;;;;5009601;28;128800;-72
2023/12/06 06:03:38;;;;;;;;;;;;;;;;;;5011284;28;130133;-72
2023/12/06 06:06:05;;;;;;;;;;;;;;;;;;5008794;28;128734;-73
2023/12/06 06:08:32;;;;;;;;;;;;;;;;;;5008945;28;129668;-72
2023/12/06 06:10:58;;;;;;;;;;;;;;;;;;5008225;28;123105;-72
2023/12/06 06:13:28;;;;;;;;;;;;;;;;;;5007649;28;129003;-72
2023/12/06 06:15:55;;;;;;;;;;;;;;;;;;5008894;28;130559;-72
2023/12/06 06:18:21;;;;;;;;;;;;;;;;;;5008172;28;123091;-72
2023/12/06 06:20:47;;;;;;;;;;;;;;;;;;5008623;28;129015;-73
2023/12/06 06:23:14;;;;;;;;;;;;;;;;;;5011737;28;129419;-72
2023/12/06 06:25:40;;;;;;;;;;;;;;;;;;5009046;28;128982;-73
2023/12/06 06:28:06;;;;;;;;;;;;;;;;;;5008085;28;130039;-72
2023/12/06 06:30:33;;;;;;;;;;;;;;;;;;5008988;28;119108;-72
2023/12/06 06:32:59;;;;;;;;;;;;;;;;;;5007850;28;129343;-72
2023/12/06 06:35:25;;;;;;;;;;;;;;;;;;5008655;28;127396;-72
2023/12/06 06:37:52;;;;;;;;;;;;;;;;;;5007975;28;125220;-72
2023/12/06 06:40:18;;;;;;;;;;;;;;;;;;5007610;28;129549;-71
2023/12/06 06:42:45;;;;;;;;;;;;;;;;;;5008192;28;130067;-72
2023/12/06 06:45:12;;;;;;;;;;;;;;;;;;5011239;28;104667;-73
2023/12/06 06:47:38;;;;;;;;;;;;;;;;;;5007975;28;129875;-72
2023/12/06 06:50:05;;;;;;;;;;;;;;;;;;5007980;28;123707;-72
2023/12/06 06:52:31;;;;;;;;;;;;;;;;;;5018092;28;129258;-72
2023/12/06 06:54:57;;;;;;;;;;;;;;;;;;5028545;28;129421;-72
2023/12/06 06:57:24;;;;;;;;;;;;;;;;;;5027942;28;122177;-71
2023/12/06 06:59:50;;;;;;;;;;;;;;;;;;5019946;28;128855;-71
2023/12/06 07:02:17;;;;;;;;;;;;;;;;;;5006670;28;129504;-71
2023/12/06 07:04:43;;;;;;;;;;;;;;;;;;5008056;28;125449;-70
2023/12/06 07:07:09;;;;;;;;;;;;;;;;;;5010306;28;128951;-72
2023/12/06 07:09:36;;;;;;;;;;;;;;;;;;5008589;28;123096;-70
2023/12/06 07:12:03;;;;;;;;;;;;;;;;;;5002030;28;129908;-72
2023/12/06 07:14:30;;;;;;;;;;;;;;;;;;4986882;28;129460;-72
2023/12/06 07:16:57;;;;;;;;;;;;;;;;;;4988962;28;98266;-72
2023/12/06 07:19:23;;;;;;;;;;;;;;;;;;5007193;28;129089;-72
2023/12/06 07:21:52;;;;;;;;;;;;;;;;;;5006248;28;130221;-72
2023/12/06 07:24:20;;;;;;;;;;;;;;;;;;5002808;28;123788;-72
2023/12/06 07:26:46;;;;;;;;;;;;;;;;;;4997983;28;129956;-72
2023/12/06 07:29:13;;;;;;;;;;;;;;;;;;5006578;28;130018;-72
2023/12/06 07:31:39;;;;;;;;;;;;;;;;;;5005368;28;129041;-72
2023/12/06 07:34:06;;;;;;;;;;;;;;;;;;5004932;28;129638;-71
2023/12/06 07:36:39;;;;;;;;;;;;;;;;;;5006203;28;123694;-72
2023/12/06 07:39:07;;;;;;;;;;;;;;;;;;4994438;28;128838;-73
2023/12/06 07:41:33;;;;;;;;;;;;;;;;;;4988343;28;130156;-74
2023/12/06 07:43:59;;;;;;;;;;;;;;;;;;4987404;28;122542;-73
2023/12/06 07:46:26;;;;;;;;;;;;;;;;;;4987974;28;99487;-73
2023/12/06 07:48:52;;;;;;;;;;;;;;;;;;4986309;28;129497;-74
2023/12/06 07:51:19;;;;;;;;;;;;;;;;;;4988969;28;124622;-73
2023/12/06 07:53:45;;;;;;;;;;;;;;;;;;4986819;28;129477;-73
2023/12/06 07:56:11;;;;;;;;;;;;;;;;;;4986053;28;123055;-73
2023/12/06 07:58:38;;;;;;;;;;;;;;;;;;4998014;28;128945;-73
2023/12/06 08:01:05;;;;;;;;;;;;;;;;;;5006674;28;130310;-73
2023/12/06 08:03:32;;;;;;;;;;;;;;;;;;5006974;28;107062;-74
2023/12/06 08:05:59;;;;;;;;;;;;;;;;;;4989471;28;129141;-73
2023/12/06 08:08:25;;;;;;;;;;;;;;;;;;4986923;28;126878;-73
2023/12/06 08:10:52;;;;;;;;;;;;;;;;;;4986030;28;121561;-73
2023/12/06 08:13:19;;;;;;;;;;;;;;;;;;5004130;28;128835;-72
2023/12/06 08:15:45;;;;;;;;;;;;;;;;;;5006030;28;118758;-74
2023/12/06 08:18:12;;;;;;;;;;;;;;;;;;5005901;28;129063;-74
2023/12/06 08:20:38;;;;;;;;;;;;;;;;;;5006437;28;129390;-76
2023/12/06 08:23:05;;;;;;;;;;;;;;;;;;5006400;28;123872;-72
2023/12/06 08:25:31;;;;;;;;;;;;;;;;;;5006014;28;127825;-72
2023/12/06 08:27:57;;;;;;;;;;;;;;;;;;5006514;28;129268;-72
2023/12/06 08:30:24;;;;;;;;;;;;;;;;;;5006601;28;123085;-73
2023/12/06 08:32:50;;;;;;;;;;;;;;;;;;5009307;28;129668;-73
2023/12/06 08:35:17;;;;;;;;;;;;;;;;;;5006237;28;122265;-73
2023/12/06 08:37:43;;;;;;;;;;;;;;;;;;5005883;28;128490;-72
2023/12/06 08:40:11;;;;;;;;;;;;;;;;;;5005298;28;129049;-72
2023/12/06 08:42:37;;;;;;;;;;;;;;;;;;5006490;28;127605;-73
2023/12/06 08:45:03;;;;;;;;;;;;;;;;;;5005711;28;129109;-73
2023/12/06 08:47:30;;;;;;;;;;;;;;;;;;5006439;28;125275;-73
2023/12/06 08:49:56;;;;;;;;;;;;;;;;;;5006578;28;122944;-72
2023/12/06 08:52:22;;;;;;;;;;;;;;;;;;5005544;28;129802;-72
2023/12/06 08:54:49;;;;;;;;;;;;;;;;;;5010132;28;113441;-72
2023/12/06 08:57:15;;;;;;;;;;;;;;;;;;5006339;28;129169;-71
2023/12/06 08:59:42;;;;;;;;;;;;;;;;;;5005476;28;129343;-71
2023/12/06 09:02:08;;;;;;;;;;;;;;;;;;5005985;28;123005;-71
2023/12/06 09:04:34;;;;;;;;;;;;;;;;;;5005614;28;129081;-73
2023/12/06 09:07:00;;;;;;;;;;;;;;;;;;5005253;28;130147;-72
2023/12/06 09:09:27;;;;;;;;;;;;;;;;;;5005935;28;121599;-72
2023/12/06 09:11:53;;;;;;;;;;;;;;;;;;5007970;28;129609;-73
2023/12/06 09:14:20;;;;;;;;;;;;;;;;;;5008315;28;130316;-72
2023/12/06 09:16:47;;;;;;;;;;;;;;;;;;5012741;28;123072;-72
2023/12/06 09:19:13;;;;;;;;;;;;;;;;;;5008895;28;129438;-72
2023/12/06 09:21:39;;;;;;;;;;;;;;;;;;5008500;28;124493;-72
2023/12/06 09:24:06;;;;;;;;;;;;;;;;;;5009104;28;129770;-72
2023/12/06 09:26:32;;;;;;;;;;;;;;;;;;5009156;28;129465;-72
2023/12/06 09:28:58;;;;;;;;;;;;;;;;;;5007937;28;123084;-72
2023/12/06 09:31:25;;;;;;;;;;;;;;;;;;5009182;28;127592;-72
2023/12/06 09:33:52;;;;;;;;;;;;;;;;;;5008709;28;128117;-72
2023/12/06 09:36:19;;;;;;;;;;;;;;;;;;5008903;28;121554;-72
2023/12/06 09:38:45;;;;;;;;;;;;;;;;;;5012335;28;129154;-73
2023/12/06 09:41:12;;;;;;;;;;;;;;;;;;5007498;28;123530;-74
2023/12/06 09:43:39;;;;;;;;;;;;;;;;;;5009356;28;129435;-72
2023/12/06 09:46:05;;;;;;;;;;;;;;;;;;5009263;28;129610;-73
2023/12/06 09:48:31;;;;;;;;;;;;;;;;;;5009244;28;98618;-72
2023/12/06 09:50:58;;;;;;;;;;;;;;;;;;5000358;28;129043;-72
2023/12/06 09:53:24;;;;;;;;;;;;;;;;;;4987709;28;129557;-72
2023/12/06 09:55:51;;;;;;;;;;;;;;;;;;4988868;28;109481;-72
2023/12/06 09:58:19;;;;;;;;;;;;;;;;;;4988775;28;130715;-72
2023/12/06 10:00:45;;;;;;;;;;;;;;;;;;4992089;28;129468;-72
2023/12/06 10:03:13;;;;;;;;;;;;;;;;;;4987978;28;128711;-73
2023/12/06 10:05:40;;;;;;;;;;;;;;;;;;4987587;28;129950;-73
2023/12/06 10:08:06;;;;;;;;;;;;;;;;;;4988747;28;123082;-73
2023/12/06 10:10:33;;;;;;;;;;;;;;;;;;4989555;28;98579;-72
2023/12/06 10:12:59;;;;;;;;;;;;;;;;;;4988417;28;129198;-72
2023/12/06 10:15:25;;;;;;;;;;;;;;;;;;4988414;28;123247;-73
2023/12/06 10:17:52;;;;;;;;;;;;;;;;;;4987270;28;127782;-73
2023/12/06 10:20:21;;;;;;;;;;;;;;;;;;4987984;28;129610;-72
2023/12/06 10:22:47;;;;;;;;;;;;;;;;;;4990400;28;123732;-72
2023/12/06 10:25:14;;;;;;;;;;;;;;;;;;4986156;28;129671;-71
2023/12/06 10:27:43;;;;;;;;;;;;;;;;;;4989053;28;116319;-72
2023/12/06 10:30:09;;;;;;;;;;;;;;;;;;4987843;28;119982;-72
2023/12/06 10:32:36;;;;;;;;;;;;;;;;;;4988575;28;129437;-71
2023/12/06 10:35:03;;;;;;;;;;;;;;;;;;4988561;28;123427;-72
2023/12/06 10:37:29;;;;;;;;;;;;;;;;;;4987882;28;117796;-72
2023/12/06 10:39:56;;;;;;;;;;;;;;;;;;4988142;28;129606;-72
2023/12/06 10:42:22;;;;;;;;;;;;;;;;;;4990649;28;123875;-72
2023/12/06 10:44:49;;;;;;;;;;;;;;;;;;4996953;28;129534;-73
2023/12/06 10:47:16;;;;;;;;;;;;;;;;;;5004972;28;122994;-70
2023/12/06 10:49:42;;;;;;;;;;;;;;;;;;5008574;28;125959;-73
2023/12/06 10:52:08;;;;;;;;;;;;;;;;;;4999768;28;129176;-72
2023/12/06 10:54:35;;;;;;;;;;;;;;;;;;4997302;28;123447;-72
2023/12/06 10:57:03;;;;;;;;;;;;;;;;;;4996624;28;128776;-72
2023/12/06 10:59:30;;;;;;;;;;;;;;;;;;5001769;28;129665;-72
2023/12/06 11:01:56;;;;;;;;;;;;;;;;;;5007741;28;123278;-72
2023/12/06 11:04:24;;;;;;;;;;;;;;;;;;5009280;28;124805;-72
2023/12/06 11:06:51;;;;;;;;;;;;;;;;;;5002859;28;123348;-72
2023/12/06 11:09:17;;;;;;;;;;;;;;;;;;5007394;28;127385;-72
2023/12/06 11:11:44;;;;;;;;;;;;;;;;;;5006843;28;129461;-72
2023/12/06 11:14:11;;;;;;;;;;;;;;;;;;5004363;28;123244;-72
2023/12/06 11:16:37;;;;;;;;;;;;;;;;;;5006634;28;129039;-73
2023/12/06 11:19:03;;;;;;;;;;;;;;;;;;5005003;28;129556;-72
2023/12/06 11:21:30;;;;;;;;;;;;;;;;;;5004316;28;123532;-72
2023/12/06 11:23:57;;;;;;;;;;;;;;;;;;5007111;28;128928;-72
2023/12/06 11:26:23;;;;;;;;;;;;;;;;;;5007472;28;129525;-73
2023/12/06 11:28:51;;;;;;;;;;;;;;;;;;5006724;28;113953;-72
2023/12/06 11:31:20;;;;;;;;;;;;;;;;;;5006307;28;99880;-73
2023/12/06 11:33:46;;;;;;;;;;;;;;;;;;4996649;28;125415;-73
2023/12/06 11:36:13;;;;;;;;;;;;;;;;;;5001383;28;128443;-72
2023/12/06 11:38:40;;;;;;;;;;;;;;;;;;4997287;28;129520;-72
2023/12/06 11:41:06;;;;;;;;;;;;;;;;;;5008138;28;119967;-73
2023/12/06 11:43:32;;;;;;;;;;;;;;;;;;5018647;28;128964;-72
2023/12/06 11:45:59;;;;;;;;;;;;;;;;;;4994653;28;99943;-72
2023/12/06 11:48:25;;;;;;;;;;;;;;;;;;4998356;28;123299;-72
2023/12/06 11:50:52;;;;;;;;;;;;;;;;;;5001220;28;129404;-73
2023/12/06 11:53:19;;;;;;;;;;;;;;;;;;5006243;28;123010;-72
2023/12/06 11:55:46;;;;;;;;;;;;;;;;;;5003796;28;129472;-73
2023/12/06 11:58:12;;;;;;;;;;;;;;;;;;5006361;28;129112;-73
2023/12/06 12:00:38;;;;;;;;;;;;;;;;;;5004915;28;123093;-71
2023/12/06 12:03:05;;;;;;;;;;;;;;;;;;5003376;28;126761;-73
2023/12/06 12:05:31;;;;;;;;;;;;;;;;;;5005492;28;123943;-74
2023/12/06 12:07:58;;;;;;;;;;;;;;;;;;5006996;28;123676;-73
2023/12/06 12:10:25;;;;;;;;;;;;;;;;;;5006586;28;99442;-74
2023/12/06 12:12:51;;;;;;;;;;;;;;;;;;5003938;28;121795;-73
2023/12/06 12:15:18;;;;;;;;;;;;;;;;;;5005697;28;115611;-73
2023/12/06 12:17:44;;;;;;;;;;;;;;;;;;4997658;28;127925;-74
2023/12/06 12:20:10;;;;;;;;;;;;;;;;;;4991845;28;123087;-73
2023/12/06 12:22:37;;;;;;;;;;;;;;;;;;4994578;28;110035;-73
2023/12/06 12:25:03;;;;;;;;;;;;;;;;;;5005870;28;129355;-73
2023/12/06 12:27:29;;;;;;;;;;;;;;;;;;5005717;27;118296;-73
2023/12/06 12:29:56;;;;;;;;;;;;;;;;;;4997289;28;119827;-73
2023/12/06 12:32:22;;;;;;;;;;;;;;;;;;5003909;28;98206;-73
2023/12/06 12:34:49;;;;;;;;;;;;;;;;;;4995330;28;128777;-72
2023/12/06 12:37:15;;;;;;;;;;;;;;;;;;4996005;27;98757;-73
2023/12/06 12:39:42;;;;;;;;;;;;;;;;;;5004230;28;122445;-73
2023/12/06 12:42:08;;;;;;;;;;;;;;;;;;4999004;28;125140;-72
2023/12/06 12:44:36;;;;;;;;;;;;;;;;;;5000121;28;130301;-73
2023/12/06 12:47:02;;;;;;;;;;;;;;;;;;5006711;28;125506;-73
2023/12/06 12:49:30;;;;;;;;;;;;;;;;;;5010240;28;125653;-72
2023/12/06 12:51:57;;;;;;;;;;;;;;;;;;5009744;28;129439;-73
2023/12/06 12:54:23;;;;;;;;;;;;;;;;;;5003059;28;100077;-72
2023/12/06 12:56:50;;;;;;;;;;;;;;;;;;5007753;28;104405;-74
2023/12/06 12:59:16;;;;;;;;;;;;;;;;;;5008964;28;122472;-73
2023/12/06 13:01:44;;;;;;;;;;;;;;;;;;5005999;28;128438;-73
2023/12/06 13:04:10;;;;;;;;;;;;;;;;;;5003092;28;129637;-73
2023/12/06 13:06:37;;;;;;;;;;;;;;;;;;5010950;28;117321;-72
2023/12/06 13:09:03;;;;;;;;;;;;;;;;;;5000408;28;128895;-72
2023/12/06 13:11:30;;;;;;;;;;;;;;;;;;4993179;28;129420;-74
2023/12/06 13:13:56;;;;;;;;;;;;;;;;;;5003561;28;116145;-72
2023/12/06 13:16:22;;;;;;;;;;;;;;;;;;5003157;28;128327;-72
2023/12/06 13:18:50;;;;;;;;;;;;;;;;;;5007376;28;122995;-73
2023/12/06 13:21:16;;;;;;;;;;;;;;;;;;5008487;28;128896;-74
2023/12/06 13:23:43;;;;;;;;;;;;;;;;;;5009445;28;129365;-72
2023/12/06 13:26:09;;;;;;;;;;;;;;;;;;5008745;28;123465;-72
2023/12/06 13:28:35;;;;;;;;;;;;;;;;;;5009233;28;128931;-73
2023/12/06 13:31:02;;;;;;;;;;;;;;;;;;5009289;28;130195;-73
2023/12/06 13:33:28;;;;;;;;;;;;;;;;;;4992173;28;122808;-73
2023/12/06 13:35:55;;;;;;;;;;;;;;;;;;5008115;28;129979;-73
2023/12/06 13:38:21;;;;;;;;;;;;;;;;;;5006572;28;123094;-73
2023/12/06 13:40:47;;;;;;;;;;;;;;;;;;5007402;28;129145;-71
2023/12/06 13:43:15;;;;;;;;;;;;;;;;;;5009043;28;122463;-72
2023/12/06 13:45:41;;;;;;;;;;;;;;;;;;5009161;28;123195;-73
2023/12/06 13:48:08;;;;;;;;;;;;;;;;;;4996789;28;129025;-73
2023/12/06 13:50:34;;;;;;;;;;;;;;;;;;4998757;28;122122;-73
2023/12/06 13:53:00;;;;;;;;;;;;;;;;;;5007759;28;121712;-73
2023/12/06 13:55:27;;;;;;;;;;;;;;;;;;5007902;28;123516;-72
2023/12/06 13:57:53;;;;;;;;;;;;;;;;;;5010481;28;127599;-73
2023/12/06 14:00:19;;;;;;;;;;;;;;;;;;5009675;28;99415;-73
2023/12/06 14:02:47;;;;;;;;;;;;;;;;;;4998907;28;118238;-73
2023/12/06 14:05:14;;;;;;;;;;;;;;;;;;5008673;28;103409;-73
2023/12/06 14:07:40;;;;;;;;;;;;;;;;;;5008362;28;113218;-73
2023/12/06 14:10:07;;;;;;;;;;;;;;;;;;5007754;28;128405;-73
2023/12/06 14:12:33;;;;;;;;;;;;;;;;;;5007653;28;123176;-73
2023/12/06 14:15:00;;;;;;;;;;;;;;;;;;5008877;28;129791;-72
2023/12/06 14:17:28;;;;;;;;;;;;;;;;;;4999815;28;129428;-71
2023/12/06 14:19:54;;;;;;;;;;;;;;;;;;5000249;28;103163;-72
2023/12/06 14:22:21;;;;;;;;;;;;;;;;;;5001929;28;123306;-72
2023/12/06 14:24:47;;;;;;;;;;;;;;;;;;5008533;28;111649;-73
2023/12/06 14:27:14;;;;;;;;;;;;;;;;;;5008533;28;129683;-74
2023/12/06 14:29:41;;;;;;;;;;;;;;;;;;5007514;28;126181;-73
2023/12/06 14:32:07;;;;;;;;;;;;;;;;;;5007704;28;107013;-73
2023/12/06 14:34:33;;;;;;;;;;;;;;;;;;5000593;28;129796;-73
2023/12/06 14:37:00;;;;;;;;;;;;;;;;;;5004045;28;115340;-73
2023/12/06 14:39:26;;;;;;;;;;;;;;;;;;5008117;28;120934;-72
2023/12/06 14:41:53;;;;;;;;;;;;;;;;;;5004799;28;124135;-71
2023/12/06 14:44:21;;;;;;;;;;;;;;;;;;5002459;28;123079;-70
2023/12/06 14:46:48;;;;;;;;;;;;;;;;;;5006089;28;126682;-70
2023/12/06 14:49:15;;;;;;;;;;;;;;;;;;5007793;28;118726;-71
2023/12/06 14:51:42;;;;;;;;;;;;;;;;;;5006190;28;117757;-72
2023/12/06 14:54:08;;;;;;;;;;;;;;;;;;5005709;28;121160;-72
2023/12/06 14:56:35;;;;;;;;;;;;;;;;;;5006120;28;100294;-71
2023/12/06 14:59:02;;;;;;;;;;;;;;;;;;5002355;28;103342;-71
2023/12/06 15:01:28;;;;;;;;;;;;;;;;;;5009284;28;100141;-71
2023/12/06 15:03:55;;;;;;;;;;;;;;;;;;5007920;27;117169;-72
2023/12/06 15:06:21;;;;;;;;;;;;;;;;;;5004716;28;122525;-72
2023/12/06 15:08:48;;;;;;;;;;;;;;;;;;5005199;28;129432;-71
2023/12/06 15:11:14;;;;;;;;;;;;;;;;;;5005725;28;123022;-73
2023/12/06 15:13:40;;;;;;;;;;;;;;;;;;5003943;28;129037;-72
2023/12/06 15:16:07;;;;;;;;;;;;;;;;;;5006007;28;129929;-71
2023/12/06 15:18:34;;;;;;;;;;;;;;;;;;5006669;28;121619;-71
2023/12/06 15:21:01;;;;;;;;;;;;;;;;;;5004986;28;98440;-72
2023/12/06 15:23:27;;;;;;;;;;;;;;;;;;5008786;28;130371;-70
2023/12/06 15:25:54;;;;;;;;;;;;;;;;;;5004578;28;129750;-73
2023/12/06 15:28:20;;;;;;;;;;;;;;;;;;4993528;28;122195;-71
2023/12/06 15:30:46;;;;;;;;;;;;;;;;;;5000674;28;123715;-72
2023/12/06 15:33:13;;;;;;;;;;;;;;;;;;5006511;28;129074;-70
2023/12/06 15:35:39;;;;;;;;;;;;;;;;;;5006569;28;129599;-71
2023/12/06 15:38:06;;;;;;;;;;;;;;;;;;5006089;28;125930;-71
2023/12/06 15:40:34;;;;;;;;;;;;;;;;;;4986882;28;129182;-71
2023/12/06 15:43:01;;;;;;;;;;;;;;;;;;4998607;28;121709;-72
2023/12/06 15:45:29;;;;;;;;;;;;;;;;;;5004924;28;121478;-73
2023/12/06 15:48:05;;;;;;;;;;;;;;;;;;4996371;28;129488;-70
2023/12/06 15:50:33;;;;;;;;;;;;;;;;;;5000435;28;98171;-70
2023/12/06 15:52:59;;;;;;;;;;;;;;;;;;5003698;28;129357;-70
2023/12/06 15:55:26;;;;;;;;;;;;;;;;;;5000429;28;129834;-72
2023/12/06 15:57:52;;;;;;;;;;;;;;;;;;5002587;28;102022;-71
2023/12/06 16:00:25;;;;;;;;;;;;;;;;;;5001570;28;129797;-71
2023/12/06 16:02:51;;;;;;;;;;;;;;;;;;4992447;28;129592;-71
2023/12/06 16:05:18;;;;;;;;;;;;;;;;;;5000867;28;123429;-72
2023/12/06 16:07:44;;;;;;;;;;;;;;;;;;5010454;28;99389;-72
2023/12/06 16:10:10;;;;;;;;;;;;;;;;;;5004743;28;122662;-71
2023/12/06 16:12:37;;;;;;;;;;;;;;;;;;5002137;28;98768;-71
2023/12/06 16:15:04;;;;;;;;;;;;;;;;;;5002427;28;130046;-70
2023/12/06 16:17:30;;;;;;;;;;;;;;;;;;4997653;28;118032;-70
2023/12/06 16:19:57;;;;;;;;;;;;;;;;;;5004471;28;129474;-70
2023/12/06 16:22:23;;;;;;;;;;;;;;;;;;4987455;28;129447;-70
2023/12/06 16:24:50;;;;;;;;;;;;;;;;;;4986276;28;123474;-71